createdAt,value
2019-03-21T00:01:30.008Z,93.90
2019-03-21T00:04:03.503Z,94.30
2019-03-21T00:06:33.484Z,94.80
2019-03-21T00:09:05.375Z,93.50
2019-03-21T00:12:08.099Z,92.10
2019-03-21T00:14:50.187Z,92.20
2019-03-21T00:17:26.047Z,91.80
2019-03-21T00:19:55.995Z,91.10
2019-03-21T00:22:25.963Z,90.80
2019-03-21T00:24:55.916Z,90.70
2019-03-21T00:27:25.875Z,90.60
2019-03-21T00:29:55.818Z,90.10
2019-03-21T00:32:25.963Z,90.10
2019-03-21T00:34:55.903Z,90.10
2019-03-21T00:37:25.872Z,90.20
2019-03-21T00:39:55.815Z,90.10
2019-03-21T00:42:25.859Z,90.10
2019-03-21T00:44:55.803Z,90.40
2019-03-21T00:47:25.851Z,90.30
2019-03-21T00:49:55.793Z,90.30
2019-03-21T00:52:25.831Z,90.40
2019-03-21T00:54:56.747Z,90.60
2019-03-21T00:57:26.738Z,90.50
2019-03-21T00:59:56.733Z,90.70
2019-03-21T01:02:26.703Z,90.30
2019-03-21T01:04:56.646Z,90.40
2019-03-21T01:07:26.645Z,90.50
2019-03-21T01:09:56.584Z,90.20
2019-03-21T01:12:26.546Z,90.10
2019-03-21T01:14:56.499Z,89.80
2019-03-21T01:17:26.479Z,90.00
2019-03-21T01:19:56.512Z,90.10
2019-03-21T01:22:26.656Z,90.20
2019-03-21T01:24:56.599Z,90.20
2019-03-21T01:27:26.651Z,90.40
2019-03-21T01:29:57.662Z,90.40
2019-03-21T01:32:27.636Z,90.00
2019-03-21T01:34:57.583Z,90.30
2019-03-21T01:37:27.547Z,90.30
2019-03-21T01:39:58.666Z,90.60
2019-03-21T01:42:28.626Z,90.40
2019-03-21T01:44:58.571Z,90.60
2019-03-21T01:47:28.534Z,90.70
2019-03-21T01:49:58.518Z,91.00
2019-03-21T01:52:28.575Z,92.10
2019-03-21T01:54:58.558Z,92.60
2019-03-21T01:57:28.535Z,92.40
2019-03-21T01:59:58.481Z,92.60
2019-03-21T02:02:29.510Z,92.70
2019-03-21T02:04:59.459Z,92.40
2019-03-21T02:07:29.422Z,92.90
2019-03-21T02:09:59.366Z,93.30
2019-03-21T02:12:29.336Z,92.90
2019-03-21T02:14:59.278Z,93.70
2019-03-21T02:17:30.214Z,94.00
2019-03-21T02:20:00.326Z,93.10
2019-03-21T02:22:30.323Z,92.80
2019-03-21T02:25:00.346Z,93.30
2019-03-21T02:27:30.298Z,93.10
2019-03-21T02:30:00.429Z,93.30
2019-03-21T02:32:30.874Z,93.90
2019-03-21T02:35:00.829Z,94.50
2019-03-21T02:37:30.832Z,94.60
2019-03-21T02:40:00.958Z,94.20
2019-03-21T02:42:32.083Z,94.10
2019-03-21T02:45:08.474Z,94.20
2019-03-21T02:47:33.703Z,95.00
2019-03-21T02:50:05.093Z,94.40
2019-03-21T02:52:35.056Z,94.00
2019-03-21T02:55:07.748Z,94.30
2019-03-21T02:57:37.753Z,94.60
2019-03-21T03:00:19.936Z,95.00
2019-03-21T03:02:50.918Z,95.10
2019-03-21T03:05:23.573Z,95.60
2019-03-21T03:07:53.713Z,95.30
2019-03-21T03:10:32.648Z,94.80
2019-03-21T03:13:02.776Z,93.30
2019-03-21T03:15:34.465Z,94.20
2019-03-21T03:18:07.239Z,92.40
2019-03-21T03:20:37.186Z,93.70
2019-03-21T03:23:07.219Z,94.00
2019-03-21T03:25:38.241Z,95.00
2019-03-21T03:28:11.520Z,94.80
2019-03-21T03:30:42.877Z,95.10
2019-03-21T03:33:13.212Z,95.90
2019-03-21T03:35:43.160Z,95.30
2019-03-21T03:38:13.127Z,95.30
2019-03-21T03:40:45.999Z,95.40
2019-03-21T03:43:15.947Z,95.40
2019-03-21T03:45:45.894Z,95.30
2019-03-21T03:48:15.904Z,95.70
2019-03-21T03:50:45.830Z,95.60
2019-03-21T03:53:15.805Z,95.60
2019-03-21T03:55:46.022Z,95.40
2019-03-21T03:58:22.055Z,94.90
2019-03-21T04:00:52.134Z,94.40
2019-03-21T04:03:22.242Z,94.30
2019-03-21T04:05:52.201Z,95.30
2019-03-21T04:08:22.227Z,95.40
2019-03-21T04:10:55.332Z,95.00
2019-03-21T04:13:25.469Z,95.40
2019-03-21T04:15:55.426Z,95.60
2019-03-21T04:18:25.863Z,95.50
2019-03-21T04:21:01.816Z,95.00
2019-03-21T04:23:31.784Z,94.90
2019-03-21T04:26:05.035Z,94.60
2019-03-21T04:28:35.419Z,94.90
2019-03-21T04:31:05.367Z,94.50
2019-03-21T04:33:35.333Z,94.40
2019-03-21T04:36:05.275Z,93.10
2019-03-21T04:38:35.246Z,92.90
2019-03-21T04:41:05.196Z,92.40
2019-03-21T04:43:35.163Z,91.90
2019-03-21T04:46:05.116Z,92.00
2019-03-21T04:48:35.072Z,92.40
2019-03-21T04:51:05.019Z,93.80
2019-03-21T04:53:34.995Z,92.60
2019-03-21T04:56:04.935Z,92.60
2019-03-21T04:58:34.974Z,92.00
2019-03-21T05:01:05.992Z,92.00
2019-03-21T05:03:35.956Z,91.80
2019-03-21T05:06:05.970Z,91.80
2019-03-21T05:08:35.935Z,91.90
2019-03-21T05:11:05.880Z,92.10
2019-03-21T05:13:35.847Z,92.00
2019-03-21T05:16:14.290Z,92.80
2019-03-21T05:18:52.310Z,92.30
2019-03-21T05:21:24.372Z,92.40
2019-03-21T05:23:54.351Z,92.30
2019-03-21T05:26:24.299Z,92.40
2019-03-21T05:28:54.283Z,92.80
2019-03-21T05:31:27.647Z,92.90
2019-03-21T05:33:57.618Z,92.70
2019-03-21T05:36:27.566Z,92.90
2019-03-21T05:38:57.535Z,92.80
2019-03-21T05:41:28.551Z,92.70
2019-03-21T05:44:04.250Z,92.70
2019-03-21T05:46:34.199Z,92.30
2019-03-21T05:49:04.166Z,92.10
2019-03-21T05:51:34.111Z,92.30
2019-03-21T05:54:04.151Z,92.50
2019-03-21T05:56:34.090Z,92.30
2019-03-21T05:59:04.064Z,92.30
2019-03-21T06:01:34.067Z,92.30
2019-03-21T06:04:05.197Z,92.60
2019-03-21T06:06:52.803Z,91.80
2019-03-21T06:09:23.139Z,91.30
2019-03-21T06:11:59.058Z,91.10
2019-03-21T06:14:31.530Z,91.00
2019-03-21T06:17:01.480Z,91.10
2019-03-21T06:19:37.299Z,90.90
2019-03-21T06:22:19.195Z,91.30
2019-03-21T06:25:15.748Z,91.20
2019-03-21T06:27:44.730Z,91.10
2019-03-21T06:30:14.771Z,91.10
2019-03-21T06:32:44.723Z,91.10
2019-03-21T06:35:19.808Z,90.90
2019-03-21T06:37:49.754Z,91.00
2019-03-21T06:40:19.734Z,91.50
2019-03-21T06:42:49.751Z,91.00
2019-03-21T06:45:20.290Z,90.50
2019-03-21T06:47:52.905Z,90.90
2019-03-21T06:50:22.105Z,91.60
2019-03-21T06:52:52.049Z,90.90
2019-03-21T06:55:22.015Z,90.10
2019-03-21T06:57:51.963Z,90.40
2019-03-21T07:00:25.037Z,90.00
2019-03-21T07:02:54.719Z,90.40
2019-03-21T07:05:26.648Z,90.50
2019-03-21T07:07:56.330Z,90.40
2019-03-21T07:10:26.311Z,90.80
2019-03-21T07:12:56.259Z,89.70
2019-03-21T07:15:26.236Z,90.20
2019-03-21T07:17:56.182Z,90.00
2019-03-21T07:20:26.411Z,88.10
2019-03-21T07:22:56.364Z,86.40
2019-03-21T07:25:26.343Z,86.80
2019-03-21T07:27:56.354Z,85.40
2019-03-21T07:30:26.399Z,86.90
2019-03-21T07:32:57.002Z,87.60
2019-03-21T07:35:27.045Z,87.80
2019-03-21T07:37:57.172Z,87.00
2019-03-21T07:40:27.161Z,87.50
2019-03-21T07:42:57.122Z,87.60
2019-03-21T07:45:27.379Z,84.70
2019-03-21T07:47:57.899Z,84.60
2019-03-21T07:50:27.874Z,85.10
2019-03-21T07:52:58.223Z,85.30
2019-03-21T07:55:28.200Z,83.90
2019-03-21T07:57:59.537Z,84.40
2019-03-21T08:00:30.151Z,83.60
2019-03-21T08:03:00.026Z,85.50
2019-03-21T08:05:39.794Z,83.80
2019-03-21T08:08:02.350Z,85.60
2019-03-21T08:10:33.703Z,82.30
2019-03-21T08:13:03.769Z,82.40
2019-03-21T08:15:33.747Z,81.60
2019-03-21T08:18:03.698Z,83.30
2019-03-21T08:20:33.675Z,82.10
2019-03-21T08:23:03.618Z,81.70
2019-03-21T08:25:33.595Z,81.70
2019-03-21T08:28:03.721Z,81.90
2019-03-21T08:30:37.577Z,82.00
2019-03-21T08:33:07.518Z,82.00
2019-03-21T08:35:37.628Z,83.00
2019-03-21T08:38:07.643Z,82.00
2019-03-21T08:40:37.623Z,83.70
2019-03-21T08:43:07.583Z,83.40
2019-03-21T08:45:37.563Z,83.60
2019-03-21T08:48:07.521Z,82.90
2019-03-21T08:50:37.499Z,83.50
2019-03-21T08:53:07.454Z,83.00
2019-03-21T08:55:37.919Z,84.80
2019-03-21T08:58:07.939Z,85.40
2019-03-21T09:00:37.923Z,84.50
2019-03-21T09:03:07.891Z,84.60
2019-03-21T09:05:37.875Z,85.70
2019-03-21T09:08:07.834Z,86.60
2019-03-21T09:10:37.820Z,85.30
2019-03-21T09:13:07.791Z,86.50
2019-03-21T09:15:38.043Z,87.90
2019-03-21T09:18:08.003Z,84.40
2019-03-21T09:20:37.997Z,85.40
2019-03-21T09:23:07.951Z,87.40
2019-03-21T09:25:37.959Z,85.20
2019-03-21T09:28:07.915Z,85.30
2019-03-21T09:30:37.903Z,86.10
2019-03-21T09:33:07.862Z,83.20
2019-03-21T09:35:37.843Z,84.40
2019-03-21T09:38:07.830Z,83.50
2019-03-21T09:40:37.863Z,84.70
2019-03-21T09:43:07.879Z,83.70
2019-03-21T09:45:37.859Z,83.90
2019-03-21T09:48:07.911Z,85.10
2019-03-21T09:50:37.937Z,83.00
2019-03-21T09:53:07.915Z,83.00
2019-03-21T09:55:37.873Z,82.30
2019-03-21T09:58:07.929Z,82.10
2019-03-21T10:00:38.018Z,82.70
2019-03-21T10:03:07.955Z,83.10
2019-03-21T10:05:37.907Z,81.40
2019-03-21T10:08:07.955Z,82.30
2019-03-21T10:10:37.913Z,82.10
2019-03-21T10:13:07.889Z,81.70
2019-03-21T10:15:37.848Z,81.30
2019-03-21T10:18:07.830Z,81.60
2019-03-21T10:20:37.787Z,82.00
2019-03-21T10:23:07.782Z,82.90
2019-03-21T10:25:37.734Z,81.10
2019-03-21T10:28:07.719Z,81.80
2019-03-21T10:30:41.890Z,80.10
2019-03-21T10:33:13.133Z,81.50
2019-03-21T10:35:43.092Z,79.90
2019-03-21T10:38:14.397Z,84.00
2019-03-21T10:40:44.530Z,86.10
2019-03-21T10:43:14.520Z,86.80
2019-03-21T10:45:44.479Z,83.20
2019-03-21T10:48:14.467Z,85.30
2019-03-21T10:50:44.498Z,84.80
2019-03-21T10:53:14.479Z,82.10
2019-03-21T10:55:44.436Z,82.20
2019-03-21T10:58:14.423Z,82.00
2019-03-21T11:00:44.376Z,78.60
2019-03-21T11:03:14.359Z,83.80
2019-03-21T11:05:44.322Z,79.90
2019-03-21T11:08:14.319Z,77.80
2019-03-21T11:10:46.112Z,79.10
2019-03-21T11:13:15.897Z,81.40
2019-03-21T11:15:45.860Z,84.20
2019-03-21T11:18:15.839Z,79.60
2019-03-21T11:20:45.807Z,78.20
2019-03-21T11:23:15.869Z,79.20
2019-03-21T11:25:45.821Z,79.90
2019-03-21T11:28:17.785Z,79.40
2019-03-21T11:30:47.633Z,76.60
2019-03-21T11:33:17.616Z,76.50
2019-03-21T11:35:47.570Z,78.20
2019-03-21T11:38:17.554Z,76.90
2019-03-21T11:40:48.614Z,77.70
2019-03-21T11:43:18.698Z,76.30
2019-03-21T11:45:48.810Z,73.20
2019-03-21T11:48:18.744Z,75.60
2019-03-21T11:50:48.728Z,76.50
2019-03-21T11:53:18.684Z,75.40
2019-03-21T11:55:48.668Z,73.60
2019-03-21T11:58:19.696Z,74.70
2019-03-21T12:00:49.676Z,75.60
2019-03-21T12:03:19.639Z,75.50
2019-03-21T12:05:49.619Z,74.70
2019-03-21T12:08:19.579Z,74.50
2019-03-21T12:10:49.559Z,76.80
2019-03-21T12:13:19.509Z,76.30
2019-03-21T12:15:49.499Z,77.00
2019-03-21T12:18:19.466Z,72.50
2019-03-21T12:20:50.363Z,74.00
2019-03-21T12:23:20.318Z,71.60
2019-03-21T12:25:50.304Z,74.50
2019-03-21T12:28:20.295Z,76.20
2019-03-21T12:30:50.285Z,73.10
2019-03-21T12:33:20.240Z,74.30
2019-03-21T12:35:50.645Z,72.70
2019-03-21T12:38:20.583Z,72.90
2019-03-21T12:40:50.571Z,75.60
2019-03-21T12:43:20.518Z,73.50
2019-03-21T12:45:50.504Z,71.80
2019-03-21T12:48:20.541Z,76.50
2019-03-21T12:50:50.583Z,80.40
2019-03-21T12:53:20.571Z,74.20
2019-03-21T12:55:50.558Z,72.90
2019-03-21T12:58:20.607Z,72.60
2019-03-21T13:00:50.659Z,71.20
2019-03-21T13:03:20.650Z,72.40
2019-03-21T13:05:50.643Z,72.20
2019-03-21T13:08:20.599Z,72.70
2019-03-21T13:10:50.647Z,75.90
2019-03-21T13:13:20.599Z,73.50
2019-03-21T13:15:50.566Z,72.10
2019-03-21T13:18:20.562Z,73.90
2019-03-21T13:20:50.525Z,71.90
2019-03-21T13:23:20.514Z,69.50
2019-03-21T13:25:50.467Z,66.80
2019-03-21T13:28:20.448Z,69.30
2019-03-21T13:30:50.410Z,68.80
2019-03-21T13:33:20.395Z,69.70
2019-03-21T13:35:50.364Z,71.90
2019-03-21T13:38:20.506Z,72.60
2019-03-21T13:40:50.478Z,69.50
2019-03-21T13:43:20.454Z,70.20
2019-03-21T13:45:50.539Z,65.00
2019-03-21T13:48:20.590Z,64.30
2019-03-21T13:50:50.551Z,62.40
2019-03-21T13:53:20.632Z,63.10
2019-03-21T13:55:50.592Z,61.40
2019-03-21T13:58:20.730Z,63.80
2019-03-21T14:00:50.746Z,66.50
2019-03-21T14:03:25.269Z,65.40
2019-03-21T14:05:52.376Z,64.90
2019-03-21T14:08:22.359Z,64.30
2019-03-21T14:10:52.319Z,64.50
2019-03-21T14:13:22.302Z,64.20
2019-03-21T14:15:52.263Z,63.30
2019-03-21T14:18:22.247Z,62.00
2019-03-21T14:20:52.199Z,60.30
2019-03-21T14:23:22.178Z,61.50
2019-03-21T14:25:52.135Z,61.80
2019-03-21T14:28:22.115Z,61.50
2019-03-21T14:30:52.074Z,57.90
2019-03-21T14:33:22.060Z,59.40
2019-03-21T14:35:52.126Z,59.80
2019-03-21T14:38:26.265Z,58.70
2019-03-21T14:40:53.899Z,59.30
2019-03-21T14:43:23.888Z,61.30
2019-03-21T14:45:53.843Z,61.50
2019-03-21T14:48:23.827Z,59.70
2019-03-21T14:50:53.790Z,64.90
2019-03-21T14:53:28.860Z,61.30
2019-03-21T14:55:55.356Z,61.30
2019-03-21T14:58:25.341Z,59.60
2019-03-21T15:00:55.299Z,60.30
2019-03-21T15:03:25.283Z,60.00
2019-03-21T15:05:55.314Z,62.80
2019-03-21T15:08:25.360Z,60.60
2019-03-21T15:10:55.337Z,60.30
2019-03-21T15:13:25.389Z,60.10
2019-03-21T15:15:55.486Z,59.60
2019-03-21T15:18:25.531Z,61.00
2019-03-21T15:20:55.483Z,61.50
2019-03-21T15:23:26.047Z,60.60
2019-03-21T15:25:56.271Z,61.50
2019-03-21T15:28:26.412Z,61.20
2019-03-21T15:30:56.372Z,62.20
2019-03-21T15:33:26.355Z,61.90
2019-03-21T15:35:56.308Z,63.80
2019-03-21T15:38:27.744Z,63.60
2019-03-21T15:40:57.859Z,61.00
2019-03-21T15:43:27.847Z,62.50
2019-03-21T15:45:57.871Z,63.10
2019-03-21T15:48:29.014Z,61.70
2019-03-21T15:51:04.383Z,62.70
2019-03-21T15:53:30.579Z,63.50
2019-03-21T15:56:00.535Z,63.70
2019-03-21T15:58:30.520Z,64.60
2019-03-21T16:01:00.483Z,65.20
2019-03-21T16:03:30.826Z,65.40
2019-03-21T16:06:00.794Z,65.20
2019-03-21T16:08:30.981Z,66.10
2019-03-21T16:11:00.894Z,66.30
2019-03-21T16:13:30.871Z,65.60
2019-03-21T16:16:00.827Z,64.70
2019-03-21T16:18:30.815Z,63.70
2019-03-21T16:21:00.779Z,64.80
2019-03-21T16:23:30.759Z,66.60
2019-03-21T16:26:00.743Z,66.30
2019-03-21T16:28:30.703Z,67.30
2019-03-21T16:31:00.698Z,67.80
2019-03-21T16:33:30.753Z,69.80
2019-03-21T16:36:00.723Z,71.30
2019-03-21T16:38:30.675Z,70.50
2019-03-21T16:41:00.655Z,71.40
2019-03-21T16:43:30.610Z,72.20
2019-03-21T16:46:00.659Z,73.00
2019-03-21T16:48:31.683Z,73.40
2019-03-21T16:51:03.026Z,75.10
2019-03-21T16:53:33.223Z,74.70
2019-03-21T16:56:03.206Z,75.40
2019-03-21T16:58:34.221Z,76.30
2019-03-21T17:01:04.266Z,77.60
2019-03-21T17:03:34.230Z,79.00
2019-03-21T17:06:04.275Z,79.90
2019-03-21T17:08:34.236Z,80.80
2019-03-21T17:11:04.307Z,78.80
2019-03-21T17:13:34.251Z,80.10
2019-03-21T17:16:05.706Z,80.30
2019-03-21T17:18:35.903Z,81.10
2019-03-21T17:21:06.011Z,79.70
2019-03-21T17:23:35.983Z,80.90
2019-03-21T17:26:05.970Z,81.60
2019-03-21T17:28:35.914Z,83.20
2019-03-21T17:31:06.031Z,82.00
2019-03-21T17:33:35.983Z,82.30
2019-03-21T17:36:05.971Z,82.30
2019-03-21T17:38:35.927Z,84.30
2019-03-21T17:41:05.975Z,82.90
2019-03-21T17:43:35.922Z,84.30
2019-03-21T17:46:06.867Z,86.10
2019-03-21T17:48:36.836Z,86.40
2019-03-21T17:51:06.821Z,86.10
2019-03-21T17:53:36.775Z,86.10
2019-03-21T17:56:07.718Z,87.50
2019-03-21T17:58:37.679Z,87.90
2019-03-21T18:01:07.735Z,88.00
2019-03-21T18:03:37.690Z,88.70
2019-03-21T18:06:07.667Z,89.00
2019-03-21T18:08:37.627Z,90.00
2019-03-21T18:11:07.618Z,90.10
2019-03-21T18:13:37.566Z,90.50
2019-03-21T18:16:07.564Z,90.70
2019-03-21T18:18:38.584Z,90.80
2019-03-21T18:21:08.567Z,91.00
2019-03-21T18:23:39.598Z,91.20
2019-03-21T18:26:09.579Z,91.30
2019-03-21T18:28:39.598Z,91.40
2019-03-21T18:31:09.651Z,91.60
2019-03-21T18:33:39.687Z,91.60
2019-03-21T18:36:10.664Z,92.00
2019-03-21T18:38:41.261Z,92.30
2019-03-21T18:41:11.238Z,92.00
2019-03-21T18:43:41.212Z,91.90
2019-03-21T18:46:11.238Z,92.20
2019-03-21T18:48:41.335Z,92.20
2019-03-21T18:51:11.309Z,92.40
2019-03-21T18:53:41.407Z,92.60
2019-03-21T18:56:11.362Z,92.90
2019-03-21T18:58:41.374Z,92.80
2019-03-21T19:01:11.295Z,92.90
2019-03-21T19:03:41.336Z,92.90
2019-03-21T19:06:11.284Z,93.20
2019-03-21T19:08:41.254Z,93.00
2019-03-21T19:11:12.251Z,93.20
2019-03-21T19:13:42.231Z,93.30
2019-03-21T19:16:12.174Z,93.10
2019-03-21T19:18:42.154Z,93.00
2019-03-21T19:21:12.104Z,93.00
2019-03-21T19:23:42.079Z,93.10
2019-03-21T19:26:12.034Z,93.70
2019-03-21T19:28:42.079Z,94.50
2019-03-21T19:31:13.099Z,94.00
2019-03-21T19:33:43.065Z,94.30
2019-03-21T19:36:13.015Z,94.50
2019-03-21T19:38:42.986Z,94.80
2019-03-21T19:41:12.943Z,94.80
2019-03-21T19:43:42.984Z,94.90
2019-03-21T19:46:12.930Z,95.00
2019-03-21T19:48:50.086Z,95.40
2019-03-21T19:51:14.479Z,95.30
2019-03-21T19:53:44.455Z,95.20
2019-03-21T19:56:14.398Z,95.50
2019-03-21T19:58:44.369Z,95.80
2019-03-21T20:01:14.315Z,95.70
2019-03-21T20:03:44.287Z,96.00
2019-03-21T20:06:14.237Z,96.10
2019-03-21T20:08:44.211Z,95.80
2019-03-21T20:11:14.231Z,97.50
2019-03-21T20:13:45.464Z,98.60
2019-03-21T20:16:15.423Z,98.50
2019-03-21T20:18:45.559Z,97.70
2019-03-21T20:21:15.587Z,97.40
2019-03-21T20:23:45.627Z,97.00
2019-03-21T20:26:15.647Z,96.80
2019-03-21T20:28:45.631Z,96.80
2019-03-21T20:31:15.583Z,96.80
2019-03-21T20:33:45.554Z,96.60
2019-03-21T20:36:15.505Z,96.30
2019-03-21T20:38:45.543Z,96.30
2019-03-21T20:41:15.515Z,96.80
2019-03-21T20:43:45.482Z,96.80
2019-03-21T20:46:15.431Z,96.90
2019-03-21T20:48:44.324Z,96.90
2019-03-21T20:51:15.257Z,97.00
2019-03-21T20:53:45.223Z,97.00
2019-03-21T20:56:16.147Z,97.10
2019-03-21T20:58:46.182Z,97.00
2019-03-21T21:01:16.145Z,97.10
2019-03-21T21:03:46.211Z,96.90
2019-03-21T21:06:16.163Z,98.90
2019-03-21T21:08:46.151Z,99.90
2019-03-21T21:11:16.111Z,99.50
2019-03-21T21:13:46.082Z,98.80
2019-03-21T21:16:16.038Z,98.30
2019-03-21T21:18:46.019Z,98.10
2019-03-21T21:21:15.976Z,98.10
2019-03-21T21:23:46.056Z,98.00
2019-03-21T21:26:16.074Z,98.00
2019-03-21T21:28:46.023Z,97.80
2019-03-21T21:31:15.999Z,97.90
2019-03-21T21:33:45.959Z,98.00
2019-03-21T21:36:21.852Z,98.00
2019-03-21T21:38:47.510Z,99.00
2019-03-21T21:41:17.483Z,98.70
2019-03-21T21:43:47.430Z,98.40
2019-03-21T21:46:17.403Z,98.10
2019-03-21T21:48:47.351Z,98.10
2019-03-21T21:51:17.324Z,97.80
2019-03-21T21:53:48.283Z,97.80
2019-03-21T21:56:18.250Z,98.00
2019-03-21T21:58:48.203Z,98.50
2019-03-21T22:01:18.170Z,98.80
2019-03-21T22:03:48.114Z,98.70
2019-03-21T22:06:18.095Z,98.60
2019-03-21T22:08:48.046Z,98.50
2019-03-21T22:11:18.024Z,98.30
2019-03-21T22:13:47.975Z,97.90
2019-03-21T22:16:17.942Z,98.00
2019-03-21T22:18:47.902Z,97.90
2019-03-21T22:21:17.871Z,97.90
2019-03-21T22:23:48.907Z,97.80
2019-03-21T22:26:29.093Z,98.10
2019-03-21T22:28:50.460Z,98.70
2019-03-21T22:31:20.434Z,98.50
2019-03-21T22:33:50.387Z,98.60
2019-03-21T22:36:20.363Z,98.50
2019-03-21T22:38:50.318Z,98.50
2019-03-21T22:41:20.297Z,98.60
2019-03-21T22:43:50.247Z,98.30
2019-03-21T22:46:20.225Z,98.10
2019-03-21T22:48:50.175Z,98.10
2019-03-21T22:51:20.143Z,98.30
2019-03-21T22:53:50.095Z,98.00
2019-03-21T22:56:20.072Z,97.90
2019-03-21T22:58:50.026Z,97.80
2019-03-21T23:01:20.937Z,98.30
2019-03-21T23:03:50.885Z,98.90
2019-03-21T23:06:20.855Z,98.50
2019-03-21T23:08:50.802Z,98.60
2019-03-21T23:11:20.803Z,98.90
2019-03-21T23:13:52.355Z,98.60
2019-03-21T23:16:22.328Z,98.80
2019-03-21T23:18:52.274Z,98.70
2019-03-21T23:21:22.246Z,98.60
2019-03-21T23:23:52.237Z,98.50
2019-03-21T23:26:22.223Z,98.60
2019-03-21T23:28:52.274Z,98.50
2019-03-21T23:31:22.264Z,98.50
2019-03-21T23:33:52.418Z,98.50
2019-03-21T23:36:23.333Z,98.50
2019-03-21T23:38:53.305Z,99.20
2019-03-21T23:41:23.255Z,99.00
2019-03-21T23:43:53.233Z,98.90
2019-03-21T23:46:23.185Z,99.00
2019-03-21T23:48:53.156Z,99.10
2019-03-21T23:51:23.670Z,98.90
2019-03-21T23:53:53.656Z,99.30
2019-03-21T23:56:23.602Z,98.80
2019-03-21T23:58:53.575Z,98.90
